Time;durP1;ratioP1;P1;durP2;ratioP2;P2;SDS_P1;SDS_P2;PMS_P1;PMS_P2;Temp;Humidity;BMP_temperature;BMP_pressure;BME280_temperature;BME280_humidity;BME280_pressure;Samples;Min_cycle;Max_cycle;Signal;HPM_P1;HPM_P2
2023/01/28 00:06:04;;;;;;;1074.47;990.72;;;;;;;20.51;nan;100325.34;20755798;28;20042;-90
2023/01/28 00:16:07;;;;;;;1020.33;939.45;;;;;;;20.50;nan;100327.16;20747759;28;20802;-90
2023/01/28 00:26:12;;;;;;;;;;;;;;;20.47;nan;100335.31;20765812;28;20573;-89
2023/01/28 00:36:14;;;;;;;1056.47;973.50;;;;;;;20.47;nan;100340.56;20743715;28;19925;-88
2023/01/28 00:46:16;;;;;;;1058.50;975.83;;;;;;;20.43;nan;100344.34;20756733;28;20049;-92
2023/01/28 00:56:18;;;;;;;1092.28;999.90;;;;;;;20.39;nan;100351.63;20759156;28;20461;-88
2023/01/28 01:06:21;;;;;;;1016.77;936.27;;;;;;;20.40;nan;100348.06;20761608;28;20097;-88
2023/01/28 01:16:24;;;;;;;1076.20;992.55;;;;;;;20.39;nan;100350.81;20747907;28;20608;-89
2023/01/28 01:26:26;;;;;;;;;;;;;;;20.39;nan;100354.25;20762285;28;20041;-88
2023/01/28 01:36:26;;;;;;;1082.03;997.25;;;;;;;20.36;nan;100357.13;20746846;28;19921;-89
2023/01/28 01:46:36;;;;;;;1058.18;975.70;;;;;;;20.36;nan;100354.50;20755300;28;20400;-88
2023/01/28 01:56:40;;;;;;;1055.47;973.28;;;;;;;20.36;nan;100366.81;20754516;28;20041;-89
2023/01/28 02:06:43;;;;;;;1090.85;999.90;;;;;;;20.31;nan;100370.63;20741693;28;20037;-87
2023/01/28 02:16:44;;;;;;;1054.28;971.95;;;;;;;20.30;nan;100368.13;20732809;28;20052;-86
2023/01/28 02:27:22;;;;;;;1038.90;957.72;;;;;;;20.28;nan;100360.31;20753559;28;20046;-87
2023/01/28 02:37:28;;;;;;;1025.53;945.15;;;;;;;20.29;nan;100355.91;20765234;28;20133;-89
2023/01/28 02:58:28;;;;;;;1061.85;979.42;;;;;;;20.29;nan;100354.09;20749562;28;20049;-86
2023/01/28 03:39:38;;;;;;;1031.07;950.20;;;;;;;20.28;nan;100359.50;20776754;28;20046;-86
2023/01/28 03:49:44;;;;;;;1064.43;981.77;;;;;;;20.26;nan;100371.91;20756744;28;20532;-88
2023/01/28 03:59:48;;;;;;;1059.85;977.28;;;;;;;20.25;nan;100362.34;20757275;28;20291;-88
2023/01/28 04:09:49;;;;;;;1029.75;948.60;;;;;;;20.24;nan;100372.03;20755972;28;20405;-91
2023/01/28 04:19:55;;;;;;;1015.53;935.60;;;;;;;20.24;nan;100369.41;20771409;28;20037;-89
2023/01/28 04:29:56;;;;;;;1045.85;964.40;;;;;;;20.21;nan;100371.41;20768767;28;20050;-93
2023/01/28 04:39:56;;;;;;;1035.22;954.40;;;;;;;20.22;nan;100379.19;20768033;28;20041;-90
2023/01/28 04:49:57;;;;;;;1035.60;954.58;;;;;;;20.23;nan;100378.22;20750537;28;20069;-86
2023/01/28 04:59:58;;;;;;;1019.80;939.30;;;;;;;20.22;nan;100386.25;20766396;28;20455;-87
2023/01/28 05:10:00;;;;;;;1078.10;994.17;;;;;;;20.23;nan;100390.56;20750771;28;20045;-87
2023/01/28 05:20:00;;;;;;;1073.00;989.45;;;;;;;20.33;nan;100398.59;20756605;28;20117;-89
2023/01/28 05:30:01;;;;;;;1069.32;985.97;;;;;;;20.39;nan;100412.13;20749146;28;20052;-88
2023/01/28 05:40:02;;;;;;;1083.10;998.05;;;;;;;20.46;nan;100410.72;20748382;28;20122;-88
2023/01/28 05:50:02;;;;;;;1115.75;999.90;;;;;;;20.52;nan;100419.97;20747817;28;20049;-88
2023/01/28 06:00:04;;;;;;;1097.85;999.90;;;;;;;20.58;nan;100426.53;20751106;28;20053;-89
2023/01/28 06:10:05;;;;;;;1109.75;999.90;;;;;;;20.63;nan;100440.22;20757832;28;20071;-92
2023/01/28 06:20:07;;;;;;;1133.32;999.90;;;;;;;20.68;nan;100445.97;20748471;28;20156;-79
2023/01/28 06:30:09;;;;;;;1125.80;999.90;;;;;;;20.73;nan;100456.19;20724292;28;20050;-79
2023/01/28 06:40:10;;;;;;;1109.45;999.90;;;;;;;20.76;nan;100469.97;20757689;28;20583;-79
2023/01/28 06:50:11;;;;;;;1124.90;999.90;;;;;;;20.84;nan;100485.16;20746548;28;20171;-79
2023/01/28 07:00:14;;;;;;;1140.20;999.90;;;;;;;20.90;nan;100489.16;20756738;28;20400;-84
2023/01/28 07:10:15;;;;;;;1148.95;999.90;;;;;;;20.97;nan;100508.78;20772772;28;20485;-82
2023/01/28 07:20:17;;;;;;;1143.25;999.90;;;;;;;21.02;nan;100511.91;20750343;28;20048;-79
2023/01/28 07:30:20;;;;;;;1111.38;999.90;;;;;;;21.07;nan;100519.47;20738316;28;20045;-80
2023/01/28 07:40:21;;;;;;;1125.28;999.90;;;;;;;21.12;nan;100533.13;20747107;28;20134;-79
2023/01/28 07:50:22;;;;;;;1133.53;999.90;;;;;;;21.21;nan;100532.41;20765710;28;20495;-85
2023/01/28 08:00:24;;;;;;;1156.60;999.90;;;;;;;21.31;nan;100537.81;20738105;28;20057;-83
2023/01/28 08:10:24;;;;;;;1158.00;999.90;;;;;;;21.34;nan;100542.88;20765556;28;20096;-78
2023/01/28 08:20:28;;;;;;;1165.05;999.90;;;;;;;21.41;nan;100553.78;20731843;28;21707;-81
2023/01/28 08:30:28;;;;;;;1156.13;999.90;;;;;;;21.31;nan;100552.81;20734697;28;20063;-78
2023/01/28 08:40:30;;;;;;;1150.38;999.90;;;;;;;21.34;nan;100563.13;20728914;28;20033;-78
2023/01/28 08:50:35;;;;;;;1143.60;999.90;;;;;;;21.06;nan;100566.00;20699271;28;20050;-76
2023/01/28 09:00:36;;;;;;;1154.40;999.90;;;;;;;21.19;nan;100576.47;20719547;28;20142;-78
2023/01/28 09:10:37;;;;;;;1154.55;999.90;;;;;;;21.23;nan;100583.19;20710738;28;20053;-78
2023/01/28 09:20:38;;;;;;;1156.07;999.90;;;;;;;21.27;nan;100594.34;20714253;28;20045;-80
2023/01/28 09:30:39;;;;;;;1158.85;999.90;;;;;;;21.23;nan;100596.34;20710286;28;20111;-80
2023/01/28 09:40:44;;;;;;;1151.15;999.90;;;;;;;20.23;nan;100595.63;20718212;28;20053;-79
2023/01/28 09:50:49;;;;;;;1149.32;999.90;;;;;;;20.92;nan;100585.47;20745884;28;20128;-87
2023/01/28 10:00:59;;;;;;;1149.22;999.90;;;;;;;21.09;nan;100584.22;20742359;28;20041;-80
2023/01/28 10:11:22;;;;;;;1156.95;999.90;;;;;;;21.21;nan;100582.44;20711694;28;20136;-83
2023/01/28 10:21:35;;;;;;;1162.32;999.90;;;;;;;21.33;nan;100593.03;20726768;28;20532;-81
2023/01/28 10:31:43;;;;;;;1166.93;999.90;;;;;;;21.44;nan;100577.25;20709469;28;20072;-88
2023/01/28 10:41:43;;;;;;;1169.82;999.90;;;;;;;21.53;nan;100586.25;20717982;28;20087;-81
2023/01/28 10:51:45;;;;;;;1160.68;999.90;;;;;;;21.22;nan;100581.50;20731526;28;20427;-85
2023/01/28 11:01:52;;;;;;;1158.45;999.90;;;;;;;21.42;nan;100577.38;20721300;28;20050;-80
2023/01/28 11:11:53;;;;;;;1165.80;999.90;;;;;;;21.49;nan;100576.94;20714380;28;20080;-85
2023/01/28 11:21:55;;;;;;;1169.13;999.90;;;;;;;21.58;nan;100569.19;20736529;28;20033;-85
2023/01/28 11:32:00;;;;;;;1171.28;999.90;;;;;;;21.62;nan;100569.78;20745598;28;20053;-87
2023/01/28 11:42:19;;;;;;;1174.93;999.90;;;;;;;21.67;nan;100559.72;20745281;28;20049;-80
2023/01/28 11:52:27;;;;;;;1177.10;999.90;;;;;;;;;;20721345;28;20397;-82
2023/01/28 12:02:57;;;;;;;1180.78;999.90;;;;;;;21.84;nan;100554.97;20719725;28;20052;-86
2023/01/28 12:13:08;;;;;;;1184.75;999.90;;;;;;;21.94;nan;100548.00;20736995;28;20053;-79
2023/01/28 12:23:25;;;;;;;1184.07;999.90;;;;;;;22.02;nan;100550.91;20750866;28;20034;-88
2023/01/28 12:33:32;;;;;;;1187.95;999.90;;;;;;;22.07;nan;100547.91;20732708;28;20041;-80
2023/01/28 12:43:47;;;;;;;1188.63;999.90;;;;;;;22.09;nan;100550.41;20727380;28;20048;-86
2023/01/28 12:53:57;;;;;;;1183.85;999.90;;;;;;;22.09;nan;100561.78;20734337;28;20048;-84
2023/01/28 13:04:09;;;;;;;1182.65;999.90;;;;;;;22.10;nan;100563.47;20757984;28;20049;-86
2023/01/28 13:14:11;;;;;;;1177.20;999.90;;;;;;;22.10;nan;100567.91;20743864;28;20954;-79
2023/01/28 13:24:15;;;;;;;1180.70;999.90;;;;;;;22.08;nan;100573.28;20749791;28;25260;-86
2023/01/28 13:34:33;;;;;;;1176.15;999.90;;;;;;;22.09;nan;100572.31;20758213;28;20531;-88
2023/01/28 13:44:36;;;;;;;1190.32;999.90;;;;;;;22.13;nan;100586.97;20770737;28;20037;-88
2023/01/28 13:54:50;;;;;;;1192.28;999.90;;;;;;;22.23;nan;100601.09;20727001;28;20057;-87
2023/01/28 14:05:32;;;;;;;1194.95;999.90;;;;;;;22.29;nan;100609.50;20743794;28;20048;-86
2023/01/28 14:16:03;;;;;;;1191.25;999.90;;;;;;;22.32;nan;100619.81;20741575;28;20049;-85
2023/01/28 14:26:22;;;;;;;885.47;808.60;;;;;;;22.37;nan;100621.13;20735381;28;20049;-81
2023/01/28 14:36:24;;;;;;;754.90;687.55;;;;;;;22.44;nan;100628.59;20736538;28;20033;-80
2023/01/28 14:46:27;;;;;;;799.35;728.28;;;;;;;22.47;nan;100634.47;20740471;28;20049;-82
2023/01/28 14:56:30;;;;;;;787.25;717.47;;;;;;;22.47;nan;100639.75;20718515;28;20060;-77
2023/01/28 15:06:35;;;;;;;895.20;817.88;;;;;;;22.48;nan;100645.84;20719661;28;20045;-79
2023/01/28 15:16:37;;;;;;;843.70;769.85;;;;;;;22.42;nan;100649.81;20760911;28;20091;-82
2023/01/28 15:26:48;;;;;;;692.93;629.63;;;;;;;22.48;nan;100677.53;20764351;28;20041;-86
2023/01/28 15:36:49;;;;;;;683.90;621.03;;;;;;;22.44;nan;100674.28;20759686;28;20045;-85
2023/01/28 15:46:50;;;;;;;706.30;642.37;;;;;;;22.32;nan;100683.13;20753629;28;20037;-82
2023/01/28 15:56:50;;;;;;;754.03;686.83;;;;;;;22.34;nan;100694.41;20773750;28;20399;-81
2023/01/28 16:06:53;;;;;;;794.73;724.67;;;;;;;22.35;nan;100709.25;20769095;28;20054;-80
2023/01/28 16:16:56;;;;;;;857.80;783.17;;;;;;;22.33;nan;100725.22;20762882;28;20642;-82
2023/01/28 16:27:03;;;;;;;851.78;777.92;;;;;;;22.33;nan;100732.28;20736397;28;20127;-77
2023/01/28 16:37:09;;;;;;;845.55;772.05;;;;;;;22.32;nan;100733.25;20758120;28;20574;-77
2023/01/28 16:47:10;;;;;;;751.58;684.40;;;;;;;22.32;nan;100744.63;20752152;28;20042;-77
2023/01/28 16:57:17;;;;;;;854.10;780.05;;;;;;;22.31;nan;100747.41;20728594;28;20045;-83
2023/01/28 17:07:29;;;;;;;821.70;749.95;;;;;;;22.31;nan;100757.94;20752735;28;20081;-80
2023/01/28 17:17:30;;;;;;;750.90;684.28;;;;;;;22.29;nan;100754.56;20740034;28;20050;-81
2023/01/28 17:27:30;;;;;;;712.67;648.65;;;;;;;22.30;nan;100772.94;20755657;28;20057;-83
2023/01/28 17:37:31;;;;;;;676.58;615.47;;;;;;;22.30;nan;100780.00;20713401;28;20047;-77
2023/01/28 17:47:32;;;;;;;704.42;640.28;;;;;;;22.26;nan;100797.03;20716348;28;20048;-78
2023/01/28 17:57:33;;;;;;;690.40;628.20;;;;;;;22.22;nan;100799.06;20726749;28;20713;-79
2023/01/28 18:07:34;;;;;;;672.03;611.25;;;;;;;22.18;nan;100805.50;20729699;28;20049;-81
2023/01/28 18:17:35;;;;;;;714.33;650.63;;;;;;;22.14;nan;100814.63;20727013;28;20057;-77
2023/01/28 18:27:35;;;;;;;696.63;634.17;;;;;;;22.12;nan;100824.44;20757700;28;20049;-77
2023/01/28 18:37:36;;;;;;;708.65;645.45;;;;;;;22.10;nan;100829.81;20741640;28;20038;-79
2023/01/28 18:47:37;;;;;;;670.33;609.85;;;;;;;22.09;nan;100837.84;20766928;28;20046;-77
2023/01/28 18:57:38;;;;;;;543.38;491.80;;;;;;;22.07;nan;100846.72;20754048;28;20041;-79
2023/01/28 19:07:38;;;;;;;591.83;537.15;;;;;;;22.03;nan;100852.31;20762598;28;20053;-78
2023/01/28 19:17:39;;;;;;;576.47;522.88;;;;;;;22.02;nan;100856.78;20752570;28;20038;-78
2023/01/28 19:27:40;;;;;;;586.28;531.80;;;;;;;22.00;nan;100863.13;20765449;28;20048;-79
2023/01/28 19:37:41;;;;;;;575.88;522.35;;;;;;;21.98;nan;100863.22;20764537;28;20068;-80
2023/01/28 19:47:41;;;;;;;608.08;552.30;;;;;;;21.97;nan;100877.38;20745733;28;20049;-83
2023/01/28 19:57:43;;;;;;;604.80;549.42;;;;;;;21.98;nan;100886.94;20760980;28;20045;-78
2023/01/28 20:07:44;;;;;;;596.40;541.60;;;;;;;21.96;nan;100904.69;20761798;28;20742;-82
2023/01/28 20:17:46;;;;;;;576.70;523.17;;;;;;;21.97;nan;100901.09;20763407;28;20146;-81
2023/01/28 20:27:47;;;;;;;569.23;516.00;;;;;;;21.96;nan;100903.84;20752536;28;20604;-77
2023/01/28 20:37:50;;;;;;;669.67;609.53;;;;;;;22.00;nan;100906.13;20744982;28;20108;-90
2023/01/28 20:47:52;;;;;;;507.58;458.77;;;;;;;22.05;nan;100914.56;20776427;28;20045;-82
2023/01/28 20:57:56;;;;;;;529.13;478.43;;;;;;;22.12;nan;100932.56;20739850;28;20049;-86
2023/01/28 21:07:58;;;;;;;574.97;521.05;;;;;;;21.17;nan;100943.59;20773241;28;20064;-80
2023/01/28 21:17:58;;;;;;;645.93;587.63;;;;;;;21.39;nan;100951.69;20737184;28;20125;-85
2023/01/28 21:28:01;;;;;;;624.83;568.08;;;;;;;21.50;nan;100960.66;20734072;28;20071;-83
2023/01/28 21:38:01;;;;;;;628.83;571.63;;;;;;;21.51;nan;100960.53;20730421;28;20037;-84
2023/01/28 21:48:02;;;;;;;571.45;518.28;;;;;;;21.47;nan;100961.72;20725697;28;20156;-83
2023/01/28 21:59:26;;;;;;;587.08;533.05;;;;;;;21.38;nan;100957.06;20745808;28;20128;-83
2023/01/28 22:08:24;;;;;;;571.83;518.67;;;;;;;21.38;nan;100963.16;20744120;28;20078;-82
2023/01/28 22:18:24;;;;;;;570.50;517.58;;;;;;;21.33;nan;100977.63;20758118;28;20042;-81
2023/01/28 22:28:26;;;;;;;579.75;526.40;;;;;;;21.30;nan;100972.56;20731167;28;20463;-80
2023/01/28 22:38:26;;;;;;;475.58;429.23;;;;;;;21.26;nan;100964.00;20740120;28;20649;-80
2023/01/28 22:48:27;;;;;;;457.80;412.95;;;;;;;21.20;nan;100978.47;20734466;28;20053;-80
2023/01/28 22:58:28;;;;;;;426.80;384.70;;;;;;;21.17;nan;100985.72;20720310;28;20038;-82
2023/01/28 23:08:30;;;;;;;447.02;402.98;;;;;;;21.14;nan;100984.16;20744766;28;20287;-82
2023/01/28 23:28:50;;;;;;;421.48;380.13;;;;;;;21.05;nan;101001.38;20748180;28;20041;-82
2023/01/28 23:38:50;;;;;;;417.10;376.25;;;;;;;21.01;nan;101002.56;20756771;28;20100;-81
2023/01/28 23:48:50;;;;;;;469.20;423.55;;;;;;;20.98;nan;100994.84;20752986;28;20852;-82
2023/01/28 23:58:51;;;;;;;447.88;404.00;;;;;;;20.94;nan;100996.00;20761164;28;20570;-81
